首页
METAR-TAF:

METAR-TAF

机场 :

Watertown, 南达科他州, 美国

纬度: 44-54-17N, 经度: 097-08-58W, 海拔: 532米

当前天气观测

该预报发布于16分钟前的22:53 UTC
风速10节,风向南转南东
温度 26°C
湿度 39%
气压 1016 hPa
能見度: 16.1公里
天空无云

METAR: KATY 142253Z AUTO 16010KT 10SM CLR 26/11 A3000 RMK AO2 SLP155 T02610106

时间: 18:09 (23:09 UTC)

预报

该预报发布于44分钟前的22:25 UTC
预报有效从14日的 22点(UTC)到 15日的 18点(UTC)
风速7节,风向
能見度: 10公里
散云层高于25000英尺
从 15日的 0000点(UTC)
风速7节,风向东南
能見度: 10公里
阴天层高于8000英尺
从 15日的 0800点(UTC)
风速13节,风向,有时为22节阵风
能見度: 10公里
阴天层高于8000英尺
附近有阵雨
从 15日的 1400点(UTC)
风速16节,风向南转南东,有时为23节阵风
能見度: 9.7公里
散云层高于700英尺
阴天层高于1500英尺
小雨, 轻雾,

TAF: KATY 142225Z 1422/1518 17007KT P6SM SCT250 FM150000 14007KT P6SM OVC080 FM150800 17013G22KT P6SM VCSH OVC080 FM151400 16016G23KT 6SM -RA BR SCT007 OVC015

超过4000个机场的气象观测和天气预报(METAR&TAF报告)。

可查询的气象台以黄色和红色小点在地图上表示。

将鼠标移到小点上方,可查看气象台名称。

然后点击查看天气观测和预报。

如需切换地图:点击带黑十字的绿色按钮放大地图;点击带横线的绿色按钮缩小地图;或者点击绿色箭头查看邻近地区的地图。


METAR-TAF: